sensor_id;sensor_type;location;lat;lon;timestamp;pressure;altitude;pressure_sealevel;temperature;humidity
47726;BME280;33483;48.294;16.388;2023-07-16T00:02:05;99040.75;;;24.69;100.00
47726;BME280;33483;48.294;16.388;2023-07-16T00:04:32;99032.78;;;24.65;100.00
47726;BME280;33483;48.294;16.388;2023-07-16T00:07:00;99039.81;;;24.64;100.00
47726;BME280;33483;48.294;16.388;2023-07-16T00:09:30;99039.91;;;24.66;100.00
47726;BME280;33483;48.294;16.388;2023-07-16T00:11:57;99042.56;;;24.62;100.00
47726;BME280;33483;48.294;16.388;2023-07-16T00:14:25;99043.75;;;24.57;100.00
47726;BME280;33483;48.294;16.388;2023-07-16T00:16:52;99047.22;;;24.56;100.00
47726;BME280;33483;48.294;16.388;2023-07-16T00:19:21;99038.34;;;24.47;100.00
47726;BME280;33483;48.294;16.388;2023-07-16T00:21:48;99046.53;;;24.41;100.00
47726;BME280;33483;48.294;16.388;2023-07-16T00:24:15;99043.13;;;24.29;100.00
47726;BME280;33483;48.294;16.388;2023-07-16T00:26:42;99042.03;;;24.21;100.00
47726;BME280;33483;48.294;16.388;2023-07-16T00:29:10;99037.88;;;24.08;100.00
47726;BME280;33483;48.294;16.388;2023-07-16T00:31:37;99044.38;;;23.97;100.00
47726;BME280;33483;48.294;16.388;2023-07-16T00:34:04;99045.53;;;23.92;100.00
47726;BME280;33483;48.294;16.388;2023-07-16T00:36:32;99052.06;;;23.81;100.00
47726;BME280;33483;48.294;16.388;2023-07-16T00:38:59;99050.06;;;23.84;100.00
47726;BME280;33483;48.294;16.388;2023-07-16T00:41:27;99033.50;;;23.78;100.00
47726;BME280;33483;48.294;16.388;2023-07-16T00:43:55;99047.66;;;23.78;100.00
47726;BME280;33483;48.294;16.388;2023-07-16T00:46:24;99042.00;;;23.78;100.00
47726;BME280;33483;48.294;16.388;2023-07-16T00:48:57;99035.22;;;23.70;100.00
47726;BME280;33483;48.294;16.388;2023-07-16T00:51:24;99041.00;;;23.58;100.00
47726;BME280;33483;48.294;16.388;2023-07-16T00:53:56;99040.69;;;23.52;100.00
47726;BME280;33483;48.294;16.388;2023-07-16T00:56:23;99036.59;;;23.41;100.00
47726;BME280;33483;48.294;16.388;2023-07-16T00:58:51;99029.91;;;23.35;100.00
47726;BME280;33483;48.294;16.388;2023-07-16T01:01:20;99035.53;;;23.21;100.00
47726;BME280;33483;48.294;16.388;2023-07-16T01:03:48;99018.59;;;23.08;100.00
47726;BME280;33483;48.294;16.388;2023-07-16T01:06:25;99028.72;;;22.99;100.00
47726;BME280;33483;48.294;16.388;2023-07-16T01:08:58;99010.81;;;22.95;100.00
47726;BME280;33483;48.294;16.388;2023-07-16T01:11:27;99018.88;;;22.87;100.00
47726;BME280;33483;48.294;16.388;2023-07-16T01:13:56;99023.25;;;22.90;100.00
47726;BME280;33483;48.294;16.388;2023-07-16T01:16:24;99022.84;;;22.82;100.00
47726;BME280;33483;48.294;16.388;2023-07-16T01:18:52;99026.72;;;22.75;100.00
47726;BME280;33483;48.294;16.388;2023-07-16T01:21:21;99036.94;;;22.68;100.00
47726;BME280;33483;48.294;16.388;2023-07-16T01:29:13;99018.25;;;22.50;100.00
47726;BME280;33483;48.294;16.388;2023-07-16T01:31:46;99023.16;;;22.49;100.00
47726;BME280;33483;48.294;16.388;2023-07-16T01:34:19;99017.69;;;22.40;100.00
47726;BME280;33483;48.294;16.388;2023-07-16T01:36:47;99017.56;;;22.38;100.00
47726;BME280;33483;48.294;16.388;2023-07-16T01:39:16;99011.69;;;22.33;100.00
47726;BME280;33483;48.294;16.388;2023-07-16T01:41:44;99015.78;;;22.30;100.00
47726;BME280;33483;48.294;16.388;2023-07-16T01:44:16;99019.50;;;22.21;100.00
47726;BME280;33483;48.294;16.388;2023-07-16T01:46:46;99014.38;;;22.18;100.00
47726;BME280;33483;48.294;16.388;2023-07-16T01:49:19;99011.34;;;22.14;100.00
47726;BME280;33483;48.294;16.388;2023-07-16T01:51:46;99010.47;;;22.11;100.00
47726;BME280;33483;48.294;16.388;2023-07-16T01:54:14;99012.13;;;22.03;100.00
47726;BME280;33483;48.294;16.388;2023-07-16T01:56:42;99008.22;;;21.96;100.00
47726;BME280;33483;48.294;16.388;2023-07-16T01:59:10;99004.53;;;21.94;100.00
47726;BME280;33483;48.294;16.388;2023-07-16T02:01:38;99003.09;;;21.93;100.00
47726;BME280;33483;48.294;16.388;2023-07-16T02:04:06;99008.22;;;21.96;100.00
47726;BME280;33483;48.294;16.388;2023-07-16T02:06:34;99021.81;;;22.00;100.00
47726;BME280;33483;48.294;16.388;2023-07-16T02:09:02;99027.09;;;22.05;100.00
47726;BME280;33483;48.294;16.388;2023-07-16T02:11:30;99030.22;;;22.11;100.00
47726;BME280;33483;48.294;16.388;2023-07-16T02:13:58;99024.69;;;22.13;100.00
47726;BME280;33483;48.294;16.388;2023-07-16T02:16:27;99029.59;;;22.13;100.00
47726;BME280;33483;48.294;16.388;2023-07-16T02:18:58;99028.16;;;22.12;100.00
47726;BME280;33483;48.294;16.388;2023-07-16T02:21:26;99034.88;;;22.18;100.00
47726;BME280;33483;48.294;16.388;2023-07-16T02:23:54;99041.88;;;22.17;100.00
47726;BME280;33483;48.294;16.388;2023-07-16T02:26:25;99051.34;;;22.10;100.00
47726;BME280;33483;48.294;16.388;2023-07-16T02:28:54;99046.31;;;22.09;100.00
47726;BME280;33483;48.294;16.388;2023-07-16T02:31:22;99039.59;;;22.02;100.00
47726;BME280;33483;48.294;16.388;2023-07-16T02:33:52;99039.59;;;22.02;100.00
47726;BME280;33483;48.294;16.388;2023-07-16T02:36:20;99051.38;;;21.99;100.00
47726;BME280;33483;48.294;16.388;2023-07-16T02:38:49;99043.91;;;21.92;100.00
47726;BME280;33483;48.294;16.388;2023-07-16T02:41:16;99043.81;;;21.90;100.00
47726;BME280;33483;48.294;16.388;2023-07-16T02:43:45;99042.72;;;21.83;100.00
47726;BME280;33483;48.294;16.388;2023-07-16T02:46:13;99057.34;;;21.80;100.00
47726;BME280;33483;48.294;16.388;2023-07-16T02:48:42;99053.06;;;21.79;100.00
47726;BME280;33483;48.294;16.388;2023-07-16T02:51:10;99057.69;;;21.74;100.00
47726;BME280;33483;48.294;16.388;2023-07-16T02:53:37;99052.44;;;21.69;100.00
47726;BME280;33483;48.294;16.388;2023-07-16T02:56:05;99060.03;;;21.66;100.00
47726;BME280;33483;48.294;16.388;2023-07-16T02:58:35;99068.88;;;21.61;100.00
47726;BME280;33483;48.294;16.388;2023-07-16T03:01:03;99070.88;;;21.58;100.00
47726;BME280;33483;48.294;16.388;2023-07-16T03:03:33;99073.44;;;21.54;100.00
47726;BME280;33483;48.294;16.388;2023-07-16T03:06:03;99067.53;;;21.50;100.00
47726;BME280;33483;48.294;16.388;2023-07-16T03:08:33;99075.88;;;21.48;100.00
47726;BME280;33483;48.294;16.388;2023-07-16T03:11:01;99082.75;;;21.45;100.00
47726;BME280;33483;48.294;16.388;2023-07-16T03:13:29;99086.31;;;21.46;100.00
47726;BME280;33483;48.294;16.388;2023-07-16T03:15:57;99087.56;;;21.43;100.00
47726;BME280;33483;48.294;16.388;2023-07-16T03:18:29;99086.81;;;21.42;100.00
47726;BME280;33483;48.294;16.388;2023-07-16T03:20:56;99084.38;;;21.37;100.00
47726;BME280;33483;48.294;16.388;2023-07-16T03:23:25;99081.16;;;21.31;100.00
47726;BME280;33483;48.294;16.388;2023-07-16T03:25:53;99092.69;;;21.35;100.00
47726;BME280;33483;48.294;16.388;2023-07-16T03:28:21;99099.56;;;21.43;100.00
47726;BME280;33483;48.294;16.388;2023-07-16T03:30:49;99099.31;;;21.51;100.00
47726;BME280;33483;48.294;16.388;2023-07-16T03:33:20;99095.75;;;21.50;100.00
47726;BME280;33483;48.294;16.388;2023-07-16T03:35:48;99098.69;;;21.52;100.00
47726;BME280;33483;48.294;16.388;2023-07-16T03:38:19;99101.38;;;21.50;100.00
47726;BME280;33483;48.294;16.388;2023-07-16T03:40:48;99109.72;;;21.48;100.00
47726;BME280;33483;48.294;16.388;2023-07-16T03:43:16;99112.28;;;21.56;100.00
47726;BME280;33483;48.294;16.388;2023-07-16T03:45:46;99124.44;;;21.58;100.00
47726;BME280;33483;48.294;16.388;2023-07-16T03:48:17;99125.81;;;22.17;100.00
47726;BME280;33483;48.294;16.388;2023-07-16T03:50:46;99132.16;;;23.04;100.00
47726;BME280;33483;48.294;16.388;2023-07-16T03:53:14;99123.44;;;23.66;100.00
47726;BME280;33483;48.294;16.388;2023-07-16T03:55:45;99135.22;;;24.30;100.00
47726;BME280;33483;48.294;16.388;2023-07-16T03:58:13;99143.47;;;24.83;100.00
47726;BME280;33483;48.294;16.388;2023-07-16T04:00:42;99156.00;;;25.38;100.00
47726;BME280;33483;48.294;16.388;2023-07-16T04:03:10;99152.56;;;25.88;100.00
47726;BME280;33483;48.294;16.388;2023-07-16T04:05:38;99151.16;;;26.05;100.00
47726;BME280;33483;48.294;16.388;2023-07-16T04:08:06;99161.16;;;25.90;100.00
47726;BME280;33483;48.294;16.388;2023-07-16T04:10:34;99153.59;;;26.45;100.00
47726;BME280;33483;48.294;16.388;2023-07-16T04:13:02;99155.09;;;26.13;100.00
47726;BME280;33483;48.294;16.388;2023-07-16T04:15:30;99161.63;;;25.07;100.00
47726;BME280;33483;48.294;16.388;2023-07-16T04:17:58;99162.63;;;24.69;100.00
47726;BME280;33483;48.294;16.388;2023-07-16T04:20:25;99169.09;;;24.42;100.00
47726;BME280;33483;48.294;16.388;2023-07-16T04:22:53;99182.88;;;24.20;100.00
47726;BME280;33483;48.294;16.388;2023-07-16T04:25:21;99182.78;;;24.05;100.00
47726;BME280;33483;48.294;16.388;2023-07-16T04:27:49;99181.50;;;23.94;100.00
47726;BME280;33483;48.294;16.388;2023-07-16T04:30:19;99184.78;;;23.75;100.00
47726;BME280;33483;48.294;16.388;2023-07-16T04:32:47;99184.06;;;23.88;100.00
47726;BME280;33483;48.294;16.388;2023-07-16T04:35:16;99185.72;;;23.93;100.00
47726;BME280;33483;48.294;16.388;2023-07-16T04:37:44;99208.91;;;24.03;100.00
47726;BME280;33483;48.294;16.388;2023-07-16T04:40:11;99215.84;;;24.00;100.00
47726;BME280;33483;48.294;16.388;2023-07-16T04:42:39;99219.28;;;23.99;100.00
47726;BME280;33483;48.294;16.388;2023-07-16T04:45:06;99223.06;;;24.03;100.00
47726;BME280;33483;48.294;16.388;2023-07-16T04:47:34;99245.94;;;24.07;100.00
47726;BME280;33483;48.294;16.388;2023-07-16T04:50:05;99262.81;;;24.05;100.00
47726;BME280;33483;48.294;16.388;2023-07-16T04:52:33;99305.97;;;23.92;100.00
47726;BME280;33483;48.294;16.388;2023-07-16T04:55:02;99284.72;;;24.05;100.00
47726;BME280;33483;48.294;16.388;2023-07-16T04:57:32;99310.22;;;24.18;100.00
47726;BME280;33483;48.294;16.388;2023-07-16T05:00:00;99290.38;;;24.18;100.00
47726;BME280;33483;48.294;16.388;2023-07-16T05:02:28;99286.59;;;24.68;100.00
47726;BME280;33483;48.294;16.388;2023-07-16T05:04:55;99315.88;;;24.73;100.00
47726;BME280;33483;48.294;16.388;2023-07-16T05:07:23;99316.19;;;24.65;100.00
47726;BME280;33483;48.294;16.388;2023-07-16T05:09:50;99342.78;;;24.72;100.00
47726;BME280;33483;48.294;16.388;2023-07-16T05:12:18;99358.59;;;24.63;100.00
47726;BME280;33483;48.294;16.388;2023-07-16T05:14:46;99363.34;;;24.72;100.00
47726;BME280;33483;48.294;16.388;2023-07-16T05:17:15;99349.06;;;24.84;100.00
47726;BME280;33483;48.294;16.388;2023-07-16T05:19:47;99351.31;;;25.01;100.00
47726;BME280;33483;48.294;16.388;2023-07-16T05:22:18;99344.00;;;25.38;100.00
47726;BME280;33483;48.294;16.388;2023-07-16T05:24:45;99356.22;;;26.01;100.00
47726;BME280;33483;48.294;16.388;2023-07-16T05:27:14;99358.78;;;26.42;100.00
47726;BME280;33483;48.294;16.388;2023-07-16T05:29:42;99363.25;;;27.46;100.00
47726;BME280;33483;48.294;16.388;2023-07-16T05:32:10;99387.28;;;28.90;100.00
47726;BME280;33483;48.294;16.388;2023-07-16T05:34:38;99395.88;;;28.33;100.00
47726;BME280;33483;48.294;16.388;2023-07-16T05:37:07;99397.34;;;27.62;100.00
47726;BME280;33483;48.294;16.388;2023-07-16T05:39:34;99402.25;;;27.09;100.00
47726;BME280;33483;48.294;16.388;2023-07-16T05:42:02;99408.34;;;26.86;100.00
47726;BME280;33483;48.294;16.388;2023-07-16T05:44:31;99402.03;;;26.56;100.00
47726;BME280;33483;48.294;16.388;2023-07-16T05:47:00;99401.16;;;26.20;100.00
47726;BME280;33483;48.294;16.388;2023-07-16T05:49:27;99406.13;;;25.91;100.00
47726;BME280;33483;48.294;16.388;2023-07-16T05:51:55;99399.97;;;25.96;100.00
47726;BME280;33483;48.294;16.388;2023-07-16T05:54:22;99388.72;;;25.98;100.00
47726;BME280;33483;48.294;16.388;2023-07-16T05:56:50;99392.00;;;25.93;100.00
47726;BME280;33483;48.294;16.388;2023-07-16T05:59:17;99396.28;;;25.78;100.00
47726;BME280;33483;48.294;16.388;2023-07-16T06:01:44;99398.94;;;25.74;100.00
47726;BME280;33483;48.294;16.388;2023-07-16T06:04:11;99389.59;;;25.72;100.00
47726;BME280;33483;48.294;16.388;2023-07-16T06:06:39;99386.25;;;25.62;100.00
47726;BME280;33483;48.294;16.388;2023-07-16T06:09:06;99389.34;;;25.81;100.00
47726;BME280;33483;48.294;16.388;2023-07-16T06:11:33;99399.81;;;25.92;100.00
47726;BME280;33483;48.294;16.388;2023-07-16T06:14:00;99396.00;;;26.32;100.00
47726;BME280;33483;48.294;16.388;2023-07-16T06:16:28;99403.25;;;26.51;100.00
47726;BME280;33483;48.294;16.388;2023-07-16T06:18:55;99403.97;;;26.51;100.00
47726;BME280;33483;48.294;16.388;2023-07-16T06:21:23;99403.78;;;26.47;100.00
47726;BME280;33483;48.294;16.388;2023-07-16T06:23:50;99408.38;;;26.39;100.00
47726;BME280;33483;48.294;16.388;2023-07-16T06:26:17;99409.38;;;26.14;100.00
47726;BME280;33483;48.294;16.388;2023-07-16T06:28:44;99425.78;;;26.31;100.00
47726;BME280;33483;48.294;16.388;2023-07-16T06:31:12;99413.78;;;26.33;100.00
47726;BME280;33483;48.294;16.388;2023-07-16T06:33:39;99426.34;;;26.43;100.00
47726;BME280;33483;48.294;16.388;2023-07-16T06:36:06;99424.44;;;26.48;100.00
47726;BME280;33483;48.294;16.388;2023-07-16T06:38:33;99431.94;;;26.41;100.00
47726;BME280;33483;48.294;16.388;2023-07-16T06:41:00;99429.28;;;26.45;100.00
47726;BME280;33483;48.294;16.388;2023-07-16T06:43:28;99426.88;;;26.55;100.00
47726;BME280;33483;48.294;16.388;2023-07-16T06:45:56;99433.81;;;26.99;100.00
47726;BME280;33483;48.294;16.388;2023-07-16T06:48:23;99434.66;;;27.02;100.00
47726;BME280;33483;48.294;16.388;2023-07-16T06:50:51;99431.16;;;27.03;100.00
47726;BME280;33483;48.294;16.388;2023-07-16T06:53:18;99436.72;;;27.50;100.00
47726;BME280;33483;48.294;16.388;2023-07-16T06:55:47;99427.13;;;28.12;97.02
47726;BME280;33483;48.294;16.388;2023-07-16T06:58:18;99452.47;;;29.39;82.87
47726;BME280;33483;48.294;16.388;2023-07-16T07:00:46;99456.88;;;30.07;74.08
47726;BME280;33483;48.294;16.388;2023-07-16T07:03:17;99463.78;;;31.45;65.00
47726;BME280;33483;48.294;16.388;2023-07-16T07:05:45;99460.94;;;32.36;59.63
47726;BME280;33483;48.294;16.388;2023-07-16T07:08:13;99470.09;;;33.32;55.34
47726;BME280;33483;48.294;16.388;2023-07-16T07:10:41;99462.50;;;33.09;54.54
47726;BME280;33483;48.294;16.388;2023-07-16T07:13:08;99465.31;;;33.88;51.85
47726;BME280;33483;48.294;16.388;2023-07-16T07:15:35;99470.66;;;33.62;51.35
47726;BME280;33483;48.294;16.388;2023-07-16T07:18:02;99473.13;;;33.81;50.57
47726;BME280;33483;48.294;16.388;2023-07-16T07:20:30;99487.28;;;34.11;49.34
47726;BME280;33483;48.294;16.388;2023-07-16T07:22:57;99488.97;;;34.78;47.59
47726;BME280;33483;48.294;16.388;2023-07-16T07:25:26;99486.09;;;34.78;47.15
47726;BME280;33483;48.294;16.388;2023-07-16T07:27:53;99485.53;;;35.57;45.33
47726;BME280;33483;48.294;16.388;2023-07-16T07:30:21;99492.38;;;35.96;43.01
47726;BME280;33483;48.294;16.388;2023-07-16T07:32:49;99479.41;;;35.23;42.77
47726;BME280;33483;48.294;16.388;2023-07-16T07:35:21;99495.88;;;35.12;42.85
47726;BME280;33483;48.294;16.388;2023-07-16T07:37:48;99494.69;;;35.36;41.70
47726;BME280;33483;48.294;16.388;2023-07-16T07:40:15;99507.25;;;35.00;40.84
47726;BME280;33483;48.294;16.388;2023-07-16T07:42:43;99503.44;;;35.46;39.77
47726;BME280;33483;48.294;16.388;2023-07-16T07:45:10;99506.94;;;36.14;37.99
47726;BME280;33483;48.294;16.388;2023-07-16T07:47:37;99510.38;;;37.14;36.42
47726;BME280;33483;48.294;16.388;2023-07-16T07:50:06;99512.75;;;36.20;36.42
47726;BME280;33483;48.294;16.388;2023-07-16T07:52:33;99505.56;;;36.27;36.69
47726;BME280;33483;48.294;16.388;2023-07-16T07:55:01;99508.00;;;36.69;35.56
47726;BME280;33483;48.294;16.388;2023-07-16T07:57:28;99521.84;;;36.90;34.78
47726;BME280;33483;48.294;16.388;2023-07-16T07:59:56;99515.41;;;37.06;34.63
47726;BME280;33483;48.294;16.388;2023-07-16T08:02:26;99529.34;;;38.04;32.96
47726;BME280;33483;48.294;16.388;2023-07-16T08:04:54;99523.56;;;38.32;31.73
47726;BME280;33483;48.294;16.388;2023-07-16T08:07:22;99533.69;;;38.05;31.05
47726;BME280;33483;48.294;16.388;2023-07-16T08:09:49;99532.09;;;38.90;30.40
47726;BME280;33483;48.294;16.388;2023-07-16T08:12:19;99542.38;;;38.05;30.13
47726;BME280;33483;48.294;16.388;2023-07-16T08:14:47;99539.44;;;37.67;30.47
47726;BME280;33483;48.294;16.388;2023-07-16T08:17:18;99536.56;;;37.77;30.39
47726;BME280;33483;48.294;16.388;2023-07-16T08:19:50;99533.69;;;37.79;30.74
47726;BME280;33483;48.294;16.388;2023-07-16T08:22:17;99539.41;;;37.43;30.41
47726;BME280;33483;48.294;16.388;2023-07-16T08:24:45;99546.63;;;37.44;30.80
47726;BME280;33483;48.294;16.388;2023-07-16T08:27:13;99544.47;;;37.48;31.33
47726;BME280;33483;48.294;16.388;2023-07-16T08:29:40;99544.47;;;37.50;31.00
47726;BME280;33483;48.294;16.388;2023-07-16T08:32:07;99550.72;;;36.86;31.76
47726;BME280;33483;48.294;16.388;2023-07-16T08:34:37;99549.44;;;37.21;31.41
47726;BME280;33483;48.294;16.388;2023-07-16T08:37:05;99548.09;;;37.57;30.79
47726;BME280;33483;48.294;16.388;2023-07-16T08:39:35;99553.25;;;38.16;30.82
47726;BME280;33483;48.294;16.388;2023-07-16T08:42:03;99555.38;;;37.78;30.00
47726;BME280;33483;48.294;16.388;2023-07-16T08:44:31;99558.22;;;37.70;29.97
47726;BME280;33483;48.294;16.388;2023-07-16T08:47:00;99551.06;;;37.75;30.65
47726;BME280;33483;48.294;16.388;2023-07-16T08:49:29;99556.13;;;38.28;29.67
47726;BME280;33483;48.294;16.388;2023-07-16T08:51:57;99550.34;;;38.18;29.87
47726;BME280;33483;48.294;16.388;2023-07-16T08:54:25;99557.56;;;38.15;29.70
47726;BME280;33483;48.294;16.388;2023-07-16T08:56:53;99567.72;;;38.31;29.50
47726;BME280;33483;48.294;16.388;2023-07-16T08:59:21;99563.59;;;36.65;31.93
47726;BME280;33483;48.294;16.388;2023-07-16T09:01:48;99568.38;;;37.71;30.60
47726;BME280;33483;48.294;16.388;2023-07-16T09:04:18;99561.19;;;37.80;30.26
47726;BME280;33483;48.294;16.388;2023-07-16T09:06:45;99577.03;;;37.61;30.53
47726;BME280;33483;48.294;16.388;2023-07-16T09:09:19;99561.91;;;38.06;30.20
47726;BME280;33483;48.294;16.388;2023-07-16T09:11:49;99570.59;;;37.90;30.17
47726;BME280;33483;48.294;16.388;2023-07-16T09:14:20;99557.56;;;37.99;30.80
47726;BME280;33483;48.294;16.388;2023-07-16T09:16:51;99565.56;;;38.21;30.36
47726;BME280;33483;48.294;16.388;2023-07-16T09:19:19;99570.44;;;37.28;31.49
47726;BME280;33483;48.294;16.388;2023-07-16T09:21:47;99562.78;;;35.67;33.76
47726;BME280;33483;48.294;16.388;2023-07-16T09:24:14;99569.47;;;35.22;34.76
47726;BME280;33483;48.294;16.388;2023-07-16T09:26:48;99568.41;;;34.95;35.20
47726;BME280;33483;48.294;16.388;2023-07-16T09:29:16;99568.44;;;36.35;33.03
47726;BME280;33483;48.294;16.388;2023-07-16T09:31:53;99566.69;;;36.97;32.50
47726;BME280;33483;48.294;16.388;2023-07-16T09:34:21;99574.91;;;37.75;32.51
47726;BME280;33483;48.294;16.388;2023-07-16T09:36:49;99561.72;;;37.22;31.56
47726;BME280;33483;48.294;16.388;2023-07-16T09:39:16;99572.75;;;37.78;30.98
47726;BME280;33483;48.294;16.388;2023-07-16T09:41:46;99560.97;;;37.13;31.62
47726;BME280;33483;48.294;16.388;2023-07-16T09:44:14;99564.81;;;37.86;32.81
47726;BME280;33483;48.294;16.388;2023-07-16T09:46:42;99565.53;;;38.07;30.41
47726;BME280;33483;48.294;16.388;2023-07-16T09:49:10;99572.00;;;37.71;30.64
47726;BME280;33483;48.294;16.388;2023-07-16T09:51:38;99568.34;;;37.47;30.63
47726;BME280;33483;48.294;16.388;2023-07-16T09:54:06;99570.53;;;37.64;31.06
47726;BME280;33483;48.294;16.388;2023-07-16T09:56:37;99566.75;;;37.19;31.31
47726;BME280;33483;48.294;16.388;2023-07-16T09:59:07;99568.28;;;37.31;31.00
47726;BME280;33483;48.294;16.388;2023-07-16T10:01:36;99558.31;;;38.24;29.71
47726;BME280;33483;48.294;16.388;2023-07-16T10:04:13;99567.69;;;38.12;29.84
47726;BME280;33483;48.294;16.388;2023-07-16T10:09:37;99557.53;;;38.52;29.64
47726;BME280;33483;48.294;16.388;2023-07-16T10:12:15;99556.56;;;36.94;33.37
47726;BME280;33483;48.294;16.388;2023-07-16T10:14:44;99559.69;;;37.61;32.16
47726;BME280;33483;48.294;16.388;2023-07-16T10:17:15;99559.75;;;37.87;31.56
47726;BME280;33483;48.294;16.388;2023-07-16T10:19:49;99571.31;;;38.33;32.02
47726;BME280;33483;48.294;16.388;2023-07-16T10:22:17;99574.19;;;37.79;31.76
47726;BME280;33483;48.294;16.388;2023-07-16T10:24:50;99574.19;;;37.83;31.80
47726;BME280;33483;48.294;16.388;2023-07-16T10:27:26;99561.91;;;38.04;31.93
47726;BME280;33483;48.294;16.388;2023-07-16T10:32:51;99557.56;;;38.29;31.15
47726;BME280;33483;48.294;16.388;2023-07-16T10:35:20;99571.25;;;37.71;31.52
47726;BME280;33483;48.294;16.388;2023-07-16T10:37:48;99558.25;;;37.66;32.13
47726;BME280;33483;48.294;16.388;2023-07-16T10:40:15;99564.06;;;37.76;32.43
47726;BME280;33483;48.294;16.388;2023-07-16T10:42:43;99549.47;;;37.32;32.98
47726;BME280;33483;48.294;16.388;2023-07-16T10:45:11;99571.28;;;37.77;32.40
47726;BME280;33483;48.294;16.388;2023-07-16T10:47:40;99564.09;;;37.92;32.09
47726;BME280;33483;48.294;16.388;2023-07-16T10:50:14;99558.28;;;37.76;32.12
47726;BME280;33483;48.294;16.388;2023-07-16T10:52:49;99551.69;;;37.39;32.10
47726;BME280;33483;48.294;16.388;2023-07-16T10:55:17;99550.97;;;37.43;31.67
47726;BME280;33483;48.294;16.388;2023-07-16T10:57:46;99552.44;;;37.52;31.63
47726;BME280;33483;48.294;16.388;2023-07-16T11:00:14;99545.19;;;37.43;31.22
47726;BME280;33483;48.294;16.388;2023-07-16T11:02:41;99544.53;;;37.74;30.90
47726;BME280;33483;48.294;16.388;2023-07-16T11:05:11;99549.63;;;37.94;31.68
47726;BME280;33483;48.294;16.388;2023-07-16T11:07:42;99549.53;;;37.52;31.10
47726;BME280;33483;48.294;16.388;2023-07-16T11:10:17;99550.34;;;38.12;31.31
47726;BME280;33483;48.294;16.388;2023-07-16T11:12:44;99542.31;;;37.49;31.26
47726;BME280;33483;48.294;16.388;2023-07-16T11:15:17;99551.06;;;37.83;31.75
47726;BME280;33483;48.294;16.388;2023-07-16T11:17:48;99553.94;;;38.15;31.72
47726;BME280;33483;48.294;16.388;2023-07-16T11:20:19;99552.50;;;37.76;30.89
47726;BME280;33483;48.294;16.388;2023-07-16T11:22:46;99547.34;;;37.52;31.47
47726;BME280;33483;48.294;16.388;2023-07-16T11:25:14;99548.16;;;37.95;32.08
47726;BME280;33483;48.294;16.388;2023-07-16T11:27:43;99538.69;;;37.58;31.01
47726;BME280;33483;48.294;16.388;2023-07-16T11:30:11;99536.59;;;38.23;29.88
47726;BME280;33483;48.294;16.388;2023-07-16T11:35:10;99542.34;;;37.79;29.79
47726;BME280;33483;48.294;16.388;2023-07-16T11:37:38;99539.28;;;37.06;30.82
47726;BME280;33483;48.294;16.388;2023-07-16T11:40:06;99547.22;;;37.14;30.96
47726;BME280;33483;48.294;16.388;2023-07-16T11:42:34;99539.97;;;37.09;30.41
47726;BME280;33483;48.294;16.388;2023-07-16T11:45:03;99536.44;;;37.20;30.89
47726;BME280;33483;48.294;16.388;2023-07-16T11:47:32;99533.56;;;37.29;30.49
47726;BME280;33483;48.294;16.388;2023-07-16T11:50:01;99532.84;;;37.30;29.38
47726;BME280;33483;48.294;16.388;2023-07-16T11:52:29;99530.38;;;36.70;30.82
47726;BME280;33483;48.294;16.388;2023-07-16T11:54:57;99534.31;;;37.39;31.97
47726;BME280;33483;48.294;16.388;2023-07-16T11:57:28;99532.16;;;37.44;32.83
47726;BME280;33483;48.294;16.388;2023-07-16T11:59:55;99517.63;;;37.15;33.57
47726;BME280;33483;48.294;16.388;2023-07-16T12:02:22;99524.00;;;36.82;33.62
47726;BME280;33483;48.294;16.388;2023-07-16T12:04:50;99517.22;;;36.39;33.08
47726;BME280;33483;48.294;16.388;2023-07-16T12:07:33;99517.78;;;36.15;34.17
47726;BME280;33483;48.294;16.388;2023-07-16T12:10:02;99523.03;;;35.59;35.88
47726;BME280;33483;48.294;16.388;2023-07-16T12:12:30;99516.41;;;35.43;36.28
47726;BME280;33483;48.294;16.388;2023-07-16T12:14:59;99516.41;;;35.45;37.84
47726;BME280;33483;48.294;16.388;2023-07-16T12:17:26;99516.97;;;35.31;35.73
47726;BME280;33483;48.294;16.388;2023-07-16T12:19:56;99529.09;;;35.20;34.77
47726;BME280;33483;48.294;16.388;2023-07-16T12:22:23;99518.97;;;35.17;34.86
47726;BME280;33483;48.294;16.388;2023-07-16T12:24:51;99510.38;;;35.23;34.36
47726;BME280;33483;48.294;16.388;2023-07-16T12:27:18;99510.84;;;35.65;35.79
47726;BME280;33483;48.294;16.388;2023-07-16T12:29:46;99515.84;;;35.60;34.47
47726;BME280;33483;48.294;16.388;2023-07-16T12:32:13;99515.56;;;35.34;35.68
47726;BME280;33483;48.294;16.388;2023-07-16T12:34:40;99515.38;;;35.16;36.62
47726;BME280;33483;48.294;16.388;2023-07-16T12:37:07;99511.16;;;35.27;36.13
47726;BME280;33483;48.294;16.388;2023-07-16T12:39:35;99506.31;;;35.44;36.37
47726;BME280;33483;48.294;16.388;2023-07-16T12:42:02;99511.44;;;35.51;36.96
47726;BME280;33483;48.294;16.388;2023-07-16T12:44:29;99516.00;;;35.78;35.58
47726;BME280;33483;48.294;16.388;2023-07-16T12:46:56;99509.41;;;35.68;35.11
47726;BME280;33483;48.294;16.388;2023-07-16T12:49:24;99517.28;;;35.61;35.21
47726;BME280;33483;48.294;16.388;2023-07-16T12:51:51;99501.16;;;35.36;34.92
47726;BME280;33483;48.294;16.388;2023-07-16T12:54:18;99503.50;;;35.52;35.37
47726;BME280;33483;48.294;16.388;2023-07-16T12:56:46;99507.03;;;35.44;35.26
47726;BME280;33483;48.294;16.388;2023-07-16T12:59:13;99506.09;;;35.24;35.58
47726;BME280;33483;48.294;16.388;2023-07-16T13:01:40;99509.91;;;35.42;35.88
47726;BME280;33483;48.294;16.388;2023-07-16T13:04:08;99514.94;;;35.42;35.51
47726;BME280;33483;48.294;16.388;2023-07-16T13:06:35;99522.28;;;34.41;36.04